Prinsendam — PBGH — position and weather

sailwx.info

Track history (hours):
 
Tides and Currents Weather Stations Pressure Air Temp Water Temp Dewpoint Dewpoint Depression Visibility Wind Speed Wind Dir Waves Ship Positions

Prinsendam

Operator: Holland America Line

Last reported at 2017-Sep-20 00:30 UTC. Time now 2017-Sep-20 00:34 UTC.
Position N 53°53' E 009°11'.

Type: Ship. MMSI: 244126000.

Date/timePositionNaut miles runAvg speedWind from/ knotsBaromVisibWave heightAir tempDewpointWater temp
2017-Sep-20 00:30N 53°53' E 009°11'4 8.0
2017-Sep-20 00:00N 53°52' E 009°18'714.9
2017-Sep-19 23:31N 53°46' E 009°24'713.5
2017-Sep-19 23:00N 53°40' E 009°31'510.7
2017-Sep-19 22:30N 53°36' E 009°36'611.8
2017-Sep-19 22:00N 53°34' E 009°45'510.8
2017-Sep-19 21:30N 53°33' E 009°54'1 2.5
2017-Sep-19 21:00N 53°33' E 009°56'0 0.0
2017-Sep-19 20:30N 53°33' E 009°56'0 0.0
2017-Sep-19 20:00N 53°33' E 009°56'0 0.0
2017-Sep-19 19:27N 53°33' E 009°56'0 0.0
2017-Sep-19 19:00N 53°33' E 009°56'0 0.0
2017-Sep-19 18:27N 53°33' E 009°56'0 0.0
2017-Sep-19 18:00N 53°33' E 009°56'0 0.0
2017-Sep-19 17:30N 53°33' E 009°56'0 0.0
2017-Sep-19 17:00N 53°33' E 009°56'0 0.0
2017-Sep-19 16:30N 53°33' E 009°56'0 0.0
2017-Sep-19 16:00N 53°33' E 009°56'0 0.0
2017-Sep-19 15:27N 53°33' E 009°56'0 0.0
2017-Sep-19 15:00N 53°33' E 009°56'0 0.0
2017-Sep-19 14:30N 53°33' E 009°56'0 0.0
2017-Sep-19 14:00N 53°33' E 009°56'0 0.0
2017-Sep-19 13:30N 53°33' E 009°56'0 0.0
2017-Sep-19 13:00N 53°33' E 009°56'0 0.0
2017-Sep-19 12:30N 53°33' E 009°56'0 0.0
2017-Sep-19 12:00N 53°33' E 009°56'0 0.0
2017-Sep-19 11:30N 53°33' E 009°56'0 0.0
2017-Sep-19 11:00N 53°33' E 009°56'0 0.0
2017-Sep-19 10:30N 53°33' E 009°56'0 0.0
2017-Sep-19 10:00N 53°33' E 009°56'0 0.0
2017-Sep-19 09:30N 53°33' E 009°56'0 0.0
2017-Sep-19 09:00N 53°33' E 009°56'0 0.0
2017-Sep-19 08:30N 53°33' E 009°56'0 0.0
2017-Sep-19 08:00N 53°33' E 009°56'0 0.0
2017-Sep-19 07:30N 53°33' E 009°56'0 0.0
2017-Sep-19 07:00N 53°33' E 009°56'0 0.0
2017-Sep-19 06:30N 53°33' E 009°56'0 0.0
2017-Sep-19 06:00N 53°33' E 009°56'0 0.0
2017-Sep-19 05:30N 53°33' E 009°56'0 0.0
2017-Sep-19 05:00N 53°33' E 009°56'0 0.0
2017-Sep-19 04:30N 53°33' E 009°56'0 0.0
2017-Sep-19 04:00N 53°33' E 009°56'0 0.0
2017-Sep-19 03:30N 53°33' E 009°56'0 0.0
2017-Sep-19 03:00N 53°33' E 009°56'0 0.0
2017-Sep-19 02:30N 53°33' E 009°56'0 0.0
2017-Sep-19 02:00N 53°33' E 009°56'3480.9
2017-Sep-19 02:00N 53°30' E 009°54'3 5.9 260 / 51013.0 5.4 13.011.315.6
2017-Sep-19 01:30N 53°33' E 009°56'0 0.0
2017-Sep-19 01:00N 53°33' E 009°56'0 0.0
2017-Sep-19 00:30N 53°33' E 009°56'0 0.0
2017-Sep-19 00:00N 53°33' E 009°56'0 0.0
2017-Sep-18 23:30N 53°33' E 009°56'0 0.0
2017-Sep-18 23:00N 53°33' E 009°56'0 0.0
2017-Sep-18 22:30N 53°33' E 009°56'0 0.0
2017-Sep-18 22:00N 53°33' E 009°56'0 0.0
2017-Sep-18 21:30N 53°33' E 009°56'0 0.0
2017-Sep-18 21:00N 53°33' E 009°56'0 0.0
2017-Sep-18 20:30N 53°33' E 009°56'0 0.0
2017-Sep-18 20:00N 53°33' E 009°56'0 0.3
2017-Sep-18 19:31N 53°33' E 009°56'4 8.0
2017-Sep-18 19:01N 53°33' E 009°49'4 8.9
2017-Sep-18 18:30N 53°34' E 009°42'612.5
2017-Sep-18 18:00N 53°37' E 009°33'612.8
2017-Sep-18 17:30N 53°43' E 009°28'714.2
2017-Sep-18 17:00N 53°49' E 009°22'713.9
2017-Sep-18 16:30N 53°53' E 009°12'2 4.6
2017-Sep-18 16:01N 53°54' E 009°09'0 0.3
2017-Sep-18 15:30N 53°54' E 009°09'1 2.4
2017-Sep-18 15:00N 53°55' E 009°10'0 0.6
2017-Sep-18 14:30N 53°55' E 009°11'3 5.5
2017-Sep-18 14:00N 53°57' E 009°14'3 6.9
2017-Sep-18 13:30N 53°60' E 009°17'3 6.6
2017-Sep-18 13:00N 54°03' E 009°18'38 4.1
2017-Sep-18 03:39N 54°24' E 010°12'19 7.6
2017-Sep-18 01:11N 54°35' E 010°38'1 7.0
2017-Sep-18 01:00N 54°36' E 010°40'4 7.1
2017-Sep-18 00:30N 54°38' E 010°45'4 7.1
2017-Sep-18 00:00N 54°40' E 010°49'3 6.7
2017-Sep-17 23:30N 54°43' E 010°52'4 7.7
2017-Sep-17 23:00N 54°47' E 010°52'4 8.5
2017-Sep-17 22:30N 54°52' E 010°52'5 9.6
2017-Sep-17 22:00N 54°56' E 010°55'611.3
2017-Sep-17 21:30N 55°01' E 011°01'612.2
2017-Sep-17 21:00N 55°07' E 011°02'611.9
2017-Sep-17 20:30N 55°12' E 011°06'34 9.6
2017-Sep-17 17:00N 55°36' E 010°24'77 3.7 120 / 81011.610.8 15.013.314.9
2017-Sep-16 20:28N 56°10' E 012°27'816.7
2017-Sep-16 20:00N 56°05' E 012°37'611.9
2017-Sep-16 19:30N 55°59' E 012°42'612.9
2017-Sep-16 19:00N 55°53' E 012°44'713.4
2017-Sep-16 18:30N 55°46' E 012°42'510.0
2017-Sep-16 18:00N 55°42' E 012°36'1 1.0
2017-Sep-16 17:29N 55°42' E 012°36'0 0.0
2017-Sep-16 16:59N 55°42' E 012°36'0 0.0
2017-Sep-16 16:29N 55°42' E 012°36'0 0.0
2017-Sep-16 15:59N 55°42' E 012°36'0 0.0
2017-Sep-16 15:29N 55°42' E 012°36'0 0.0
2017-Sep-16 14:59N 55°42' E 012°36'0 0.0
2017-Sep-16 14:29N 55°42' E 012°36'0 0.0
2017-Sep-16 13:59N 55°42' E 012°36'0 0.0
2017-Sep-16 13:29N 55°42' E 012°36'0 0.0
2017-Sep-16 12:59N 55°42' E 012°36'0 0.0
2017-Sep-16 12:29N 55°42' E 012°36'0 0.0
2017-Sep-16 11:59N 55°42' E 012°36'0 0.0
2017-Sep-16 11:29N 55°42' E 012°36'0 0.0
2017-Sep-16 10:59N 55°42' E 012°36'0 0.0
2017-Sep-16 10:29N 55°42' E 012°36'0 0.0
2017-Sep-16 09:59N 55°42' E 012°36'0 0.0
2017-Sep-16 09:29N 55°42' E 012°36'0 0.0
2017-Sep-16 08:59N 55°42' E 012°36'0 0.0
2017-Sep-16 08:29N 55°42' E 012°36'0 0.0
2017-Sep-16 07:56N 55°42' E 012°36'0 0.0
2017-Sep-16 07:26N 55°42' E 012°36'0 0.0
2017-Sep-16 06:56N 55°42' E 012°36'0 0.0
2017-Sep-16 06:29N 55°42' E 012°36'0 0.0
2017-Sep-16 05:59N 55°42' E 012°36'1 2.0
2017-Sep-16 05:30N 55°43' E 012°37'4 8.6
2017-Sep-16 05:00N 55°46' E 012°42'612.9
2017-Sep-16 04:30N 55°52' E 012°44'713.9
2017-Sep-16 04:01N 55°59' E 012°41'713.2
2017-Sep-16 03:30N 56°05' E 012°35'815.2
2017-Sep-16 03:00N 56°10' E 012°25'5717.5
2017-Sep-15 23:44N 57°01' E 011°40'618.1
2017-Sep-15 23:24N 57°07' E 011°36'717.8
2017-Sep-15 23:00N 57°14' E 011°32'917.7
2017-Sep-15 22:30N 57°22' E 011°26'917.5
2017-Sep-15 22:00N 57°30' E 011°20'917.1
2017-Sep-15 21:30N 57°38' E 011°15'917.6
2017-Sep-15 21:00N 57°46' E 011°08'917.7
2017-Sep-15 20:30N 57°54' E 011°01'917.5
2017-Sep-15 20:00N 58°02' E 010°55'918.0
2017-Sep-15 19:30N 58°11' E 010°49'918.2
2017-Sep-15 19:00N 58°19' E 010°40'917.9
2017-Sep-15 18:30N 58°27' E 010°33'917.1
2017-Sep-15 18:00N 58°35' E 010°31'817.2
2017-Sep-15 17:30N 58°44' E 010°33'917.6
2017-Sep-15 17:00N 58°53' E 010°34'8488.5
2017-Sep-15 17:00N 59°00' E 010°30'3 6.2 250 / 151000.110.8 15.513.915.2
2017-Sep-15 16:30N 59°01' E 010°35'713.3
2017-Sep-15 16:01N 59°08' E 010°37'918.1
2017-Sep-15 15:30N 59°17' E 010°36'1019.3
2017-Sep-15 15:00N 59°27' E 010°33'918.1
2017-Sep-15 14:30N 59°35' E 010°38'714.0
2017-Sep-15 14:00N 59°42' E 010°35'714.3
2017-Sep-15 13:30N 59°49' E 010°35'713.0
2017-Sep-15 13:00N 59°54' E 010°44'0 0.4
2017-Sep-15 12:30N 59°54' E 010°44'0 0.0
2017-Sep-15 12:00N 59°54' E 010°44'0 0.0
2017-Sep-15 11:30N 59°54' E 010°44'0 0.0
2017-Sep-15 11:00N 59°54' E 010°44'0 0.0
2017-Sep-15 10:30N 59°54' E 010°44'0 0.0
2017-Sep-15 10:00N 59°54' E 010°44'0 0.0
2017-Sep-15 09:30N 59°54' E 010°44'0 0.0
2017-Sep-15 09:00N 59°54' E 010°44'0 0.0
2017-Sep-15 08:30N 59°54' E 010°44'0 0.0
2017-Sep-15 08:00N 59°54' E 010°44'0 0.0
2017-Sep-15 07:30N 59°54' E 010°44'0 0.0
2017-Sep-15 07:00N 59°54' E 010°44'0 0.0
2017-Sep-15 06:30N 59°54' E 010°44'0 0.0
2017-Sep-15 06:00N 59°54' E 010°44'0 0.0
2017-Sep-15 05:30N 59°54' E 010°44'0 0.0
2017-Sep-15 05:00N 59°54' E 010°44'0 0.0
2017-Sep-15 04:30N 59°54' E 010°44'0 0.0
2017-Sep-15 04:00N 59°54' E 010°44'0 0.0
2017-Sep-15 03:30N 59°54' E 010°44'0 0.0
2017-Sep-15 03:00N 59°54' E 010°44'0 0.0
2017-Sep-15 02:30N 59°54' E 010°44'0 0.0
2017-Sep-15 02:00N 59°54' E 010°44'0 0.0
2017-Sep-15 01:30N 59°54' E 010°44'0 0.0
2017-Sep-15 01:00N 59°54' E 010°44'0 0.0
2017-Sep-15 00:30N 59°54' E 010°44'0 0.0
2017-Sep-15 00:00N 59°54' E 010°44'0 0.0
2017-Sep-14 23:30N 59°54' E 010°44'0 0.0
2017-Sep-14 23:00N 59°54' E 010°44'0 0.0
2017-Sep-14 22:30N 59°54' E 010°44'0 0.0
2017-Sep-14 22:00N 59°54' E 010°44'1 1.3
2017-Sep-14 21:30N 59°54' E 010°43'4 8.2
2017-Sep-14 21:00N 59°51' E 010°37'611.4
2017-Sep-14 20:30N 59°46' E 010°35'611.5
2017-Sep-14 20:00N 59°40' E 010°37'611.9
2017-Sep-14 19:30N 59°34' E 010°38'612.9
2017-Sep-14 19:00N 59°28' E 010°34'612.0
2017-Sep-14 18:30N 59°22' E 010°35'612.1
2017-Sep-14 18:00N 59°16' E 010°37'612.2
2017-Sep-14 17:30N 59°10' E 010°39'611.3
2017-Sep-14 17:00N 59°05' E 010°35'510.9
2017-Sep-14 16:30N 58°59' E 010°34'816.0
2017-Sep-14 16:00N 58°56' E 010°20'815.9
2017-Sep-14 15:30N 58°53' E 010°06'917.2
2017-Sep-14 15:00N 58°45' E 009°60'3213.8
2017-Sep-14 15:00N 58°42' E 010°00'3217.0 290 / 13990.110.8 16.014.415.7
2017-Sep-14 13:05N 58°16' E 009°23'118.4
2017-Sep-14 13:00N 58°15' E 009°21'918.2
2017-Sep-14 12:30N 58°08' E 009°10'918.1
2017-Sep-14 12:00N 58°02' E 008°58'918.3
2017-Sep-14 11:30N 57°56' E 008°44'1918.2
2017-Sep-14 10:28N 57°47' E 008°13'2117.5
2017-Sep-14 09:16N 57°42' E 007°35'517.8
2017-Sep-14 09:00N 57°42' E 007°26'8554.8
2017-Sep-14 09:00N 57°42' E 007°12'1 2.5 350 / 7988.910.8 14.012.315.0
2017-Sep-14 08:30N 57°42' E 007°10'917.5
2017-Sep-14 08:00N 57°43' E 006°54'917.7
2017-Sep-14 07:30N 57°43' E 006°37'917.4
2017-Sep-14 07:00N 57°48' E 006°24'917.9
2017-Sep-14 06:30N 57°54' E 006°11'917.9
2017-Sep-14 06:00N 57°59' E 005°57'1917.8
2017-Sep-14 04:57N 58°10' E 005°29'1217.3
2017-Sep-14 04:14N 58°18' E 005°10'717.5
2017-Sep-14 03:50N 58°22' E 004°59'617.6
2017-Sep-14 03:30N 58°25' E 004°51'1018.0
2017-Sep-14 02:57N 58°30' E 004°34'9018.2
2017-Sep-13 22:00N 59°06' E 001°54'9018.0 350 / 30990.710.8 12.011.114.0
2017-Sep-13 17:00N 59°54' W 000°36'112 5.6 360 / 28990.610.8 12.010.213.0
2017-Sep-12 21:00N 58°18' W 002°30'5914.7 040 / 4990.610.8 12.511.613.7
2017-Sep-12 17:00N 57°36' W 003°48'54 3.7 190 / 5991.910.8 13.011.313.7
2017-Sep-12 02:23N 57°47' W 002°09'614.9
2017-Sep-12 02:00N 57°47' W 001°58'713.9
2017-Sep-12 01:30N 57°43' W 001°47'714.2
2017-Sep-12 01:00N 57°38' W 001°38'815.8
2017-Sep-12 00:31N 57°31' W 001°33'917.0
2017-Sep-11 23:59N 57°22' W 001°34'817.3
2017-Sep-11 23:30N 57°13' W 001°32'917.8
2017-Sep-11 23:00N 57°05' W 001°36'1019.2
2017-Sep-11 22:30N 56°56' W 001°44'1427.8
2017-Sep-11 22:00N 56°42' W 001°48'714.8 280 / 35987.410.8 13.512.713.5
2017-Sep-11 21:31N 56°39' W 001°59'020.5
2017-Sep-11 21:30N 56°38' W 001°59'1019.6
2017-Sep-11 21:00N 56°30' W 002°07'1019.2
2017-Sep-11 20:30N 56°21' W 002°16'918.8
2017-Sep-11 20:00N 56°13' W 002°24'918.5
2017-Sep-11 19:30N 56°08' W 002°38'1019.5
2017-Sep-11 19:00N 56°05' W 002°54'815.7
2017-Sep-11 18:30N 56°03' W 003°08'714.2
2017-Sep-11 18:00N 56°01' W 003°21'3 6.0
2017-Sep-11 17:30N 56°01' W 003°26'0 0.0
2017-Sep-11 06:25N 56°01' W 003°26'3 7.4
2017-Sep-11 06:00N 56°01' W 003°20'612.5
2017-Sep-11 05:30N 56°03' W 003°10'611.9
2017-Sep-11 05:01N 56°04' W 002°59'3 5.4
2017-Sep-11 04:30N 56°05' W 002°55'4 8.4
2017-Sep-11 04:01N 56°07' W 002°48'4 8.3
2017-Sep-11 03:31N 56°07' W 002°40'4 8.7
2017-Sep-11 03:01N 56°07' W 002°33'4 8.9
2017-Sep-11 02:30N 56°07' W 002°25'4 8.6
2017-Sep-11 02:01N 56°07' W 002°17'4 8.9
2017-Sep-11 01:31N 56°07' W 002°09'4 8.9
2017-Sep-11 01:00N 56°07' W 002°01'4 8.3
2017-Sep-11 00:30N 56°06' W 001°54'4 8.8
2017-Sep-11 00:00N 56°03' W 001°48'5 9.5
2017-Sep-10 23:31N 55°60' W 001°42'5 9.4
2017-Sep-10 23:00N 55°57' W 001°36'5 9.5
2017-Sep-10 22:30N 55°53' W 001°29'5 9.5
2017-Sep-10 21:59N 55°50' W 001°23'510.3
2017-Sep-10 21:30N 55°47' W 001°16'5 9.9
2017-Sep-10 21:00N 55°42' W 001°13'5 9.8
2017-Sep-10 20:30N 55°37' W 001°12'5 9.3
2017-Sep-10 20:01N 55°33' W 001°11'5 9.8
2017-Sep-10 19:30N 55°28' W 001°10'5 9.5
2017-Sep-10 19:01N 55°23' W 001°08'5 9.2
2017-Sep-10 18:30N 55°18' W 001°07'4 8.9
2017-Sep-10 18:00N 55°14' W 001°07'4 8.5
2017-Sep-10 17:31N 55°10' W 001°08'5 9.5
2017-Sep-10 17:00N 55°06' W 001°14'162.0
2017-Sep-10 17:00N 55°06' W 001°12'510.9 200 / 26979.910.8 15.014.214.0
2017-Sep-10 16:30N 55°03' W 001°19'5 9.0
2017-Sep-10 16:01N 55°00' W 001°26'1 1.7
2017-Sep-10 15:28N 54°60' W 001°27'0 0.0
2017-Sep-10 14:58N 54°60' W 001°27'0 0.0
2017-Sep-10 13:58N 54°60' W 001°27'0 0.0
2017-Sep-10 13:28N 54°60' W 001°27'0 0.0
2017-Sep-10 12:58N 54°60' W 001°27'0 0.0
2017-Sep-10 12:25N 54°60' W 001°27'0 0.0
2017-Sep-10 11:55N 54°60' W 001°27'0 0.0
2017-Sep-10 11:28N 54°60' W 001°27'0 0.0
2017-Sep-10 10:58N 54°60' W 001°27'0 0.0
2017-Sep-10 10:28N 54°60' W 001°27'0 0.0
2017-Sep-10 09:58N 54°60' W 001°27'0 0.0
2017-Sep-10 09:28N 54°60' W 001°27'0 0.0
2017-Sep-10 08:58N 54°60' W 001°27'0 0.0
2017-Sep-10 08:28N 54°60' W 001°27'0 0.0
2017-Sep-10 07:58N 54°60' W 001°27'0 0.0
2017-Sep-10 07:28N 54°60' W 001°27'0 0.0
2017-Sep-10 06:58N 54°60' W 001°27'1 1.4
2017-Sep-10 06:30N 54°59' W 001°28'3 5.1
2017-Sep-10 06:00N 55°01' W 001°24'4 8.1
2017-Sep-10 05:30N 55°02' W 001°17'3 6.7
2017-Sep-10 05:00N 55°01' W 001°11'4 8.1
2017-Sep-10 04:30N 55°01' W 001°04'4 8.2
2017-Sep-10 04:00N 55°01' W 000°57'4 7.6
2017-Sep-10 03:29N 55°01' W 000°50'3 6.3
2017-Sep-10 03:00N 54°59' W 000°46'4 8.0
2017-Sep-10 02:30N 54°55' W 000°44'4 8.6
2017-Sep-10 02:00N 54°53' W 000°37'4 8.9
2017-Sep-10 01:30N 54°50' W 000°31'5 9.1
2017-Sep-10 01:00N 54°48' W 000°24'  
Track history (hours):
 
Tides and Currents Weather Stations Pressure Air Temp Water Temp Dewpoint Dewpoint Depression Visibility Wind Speed Wind Dir Waves Ship Positions

Prinsendam

Operator: Holland America Line

Last reported at 2017-Sep-20 00:30 UTC. Time now 2017-Sep-20 00:34 UTC.
Position N 53°53' E 009°11'.

Type: Ship. MMSI: 244126000.

Date/timePositionNaut miles runAvg speedWind from/ knotsBaromVisibWave heightAir tempDewpointWater temp
2017-Sep-20 00:30N 53°53' E 009°11'4 8.0
2017-Sep-20 00:00N 53°52' E 009°18'714.9
2017-Sep-19 23:31N 53°46' E 009°24'713.5
2017-Sep-19 23:00N 53°40' E 009°31'510.7
2017-Sep-19 22:30N 53°36' E 009°36'611.8
2017-Sep-19 22:00N 53°34' E 009°45'510.8
2017-Sep-19 21:30N 53°33' E 009°54'1 2.5
2017-Sep-19 21:00N 53°33' E 009°56'0 0.0
2017-Sep-19 20:30N 53°33' E 009°56'0 0.0
2017-Sep-19 20:00N 53°33' E 009°56'0 0.0
2017-Sep-19 19:27N 53°33' E 009°56'0 0.0
2017-Sep-19 19:00N 53°33' E 009°56'0 0.0
2017-Sep-19 18:27N 53°33' E 009°56'0 0.0
2017-Sep-19 18:00N 53°33' E 009°56'0 0.0
2017-Sep-19 17:30N 53°33' E 009°56'0 0.0
2017-Sep-19 17:00N 53°33' E 009°56'0 0.0
2017-Sep-19 16:30N 53°33' E 009°56'0 0.0
2017-Sep-19 16:00N 53°33' E 009°56'0 0.0
2017-Sep-19 15:27N 53°33' E 009°56'0 0.0
2017-Sep-19 15:00N 53°33' E 009°56'0 0.0
2017-Sep-19 14:30N 53°33' E 009°56'0 0.0
2017-Sep-19 14:00N 53°33' E 009°56'0 0.0
2017-Sep-19 13:30N 53°33' E 009°56'0 0.0
2017-Sep-19 13:00N 53°33' E 009°56'0 0.0
2017-Sep-19 12:30N 53°33' E 009°56'0 0.0
2017-Sep-19 12:00N 53°33' E 009°56'0 0.0
2017-Sep-19 11:30N 53°33' E 009°56'0 0.0
2017-Sep-19 11:00N 53°33' E 009°56'0 0.0
2017-Sep-19 10:30N 53°33' E 009°56'0 0.0
2017-Sep-19 10:00N 53°33' E 009°56'0 0.0
2017-Sep-19 09:30N 53°33' E 009°56'0 0.0
2017-Sep-19 09:00N 53°33' E 009°56'0 0.0
2017-Sep-19 08:30N 53°33' E 009°56'0 0.0
2017-Sep-19 08:00N 53°33' E 009°56'0 0.0
2017-Sep-19 07:30N 53°33' E 009°56'0 0.0
2017-Sep-19 07:00N 53°33' E 009°56'0 0.0
2017-Sep-19 06:30N 53°33' E 009°56'0 0.0
2017-Sep-19 06:00N 53°33' E 009°56'0 0.0
2017-Sep-19 05:30N 53°33' E 009°56'0 0.0
2017-Sep-19 05:00N 53°33' E 009°56'0 0.0
2017-Sep-19 04:30N 53°33' E 009°56'0 0.0
2017-Sep-19 04:00N 53°33' E 009°56'0 0.0
2017-Sep-19 03:30N 53°33' E 009°56'0 0.0
2017-Sep-19 03:00N 53°33' E 009°56'0 0.0
2017-Sep-19 02:30N 53°33' E 009°56'0 0.0
2017-Sep-19 02:00N 53°33' E 009°56'3480.9
2017-Sep-19 02:00N 53°30' E 009°54'3 5.9 260 / 51013.0 5.4 13.011.315.6
2017-Sep-19 01:30N 53°33' E 009°56'0 0.0
2017-Sep-19 01:00N 53°33' E 009°56'0 0.0
2017-Sep-19 00:30N 53°33' E 009°56'0 0.0
2017-Sep-19 00:00N 53°33' E 009°56'0 0.0
2017-Sep-18 23:30N 53°33' E 009°56'0 0.0
2017-Sep-18 23:00N 53°33' E 009°56'0 0.0
2017-Sep-18 22:30N 53°33' E 009°56'0 0.0
2017-Sep-18 22:00N 53°33' E 009°56'0 0.0
2017-Sep-18 21:30N 53°33' E 009°56'0 0.0
2017-Sep-18 21:00N 53°33' E 009°56'0 0.0
2017-Sep-18 20:30N 53°33' E 009°56'0 0.0
2017-Sep-18 20:00N 53°33' E 009°56'0 0.3
2017-Sep-18 19:31N 53°33' E 009°56'4 8.0
2017-Sep-18 19:01N 53°33' E 009°49'4 8.9
2017-Sep-18 18:30N 53°34' E 009°42'612.5
2017-Sep-18 18:00N 53°37' E 009°33'612.8
2017-Sep-18 17:30N 53°43' E 009°28'714.2
2017-Sep-18 17:00N 53°49' E 009°22'713.9
2017-Sep-18 16:30N 53°53' E 009°12'2 4.6
2017-Sep-18 16:01N 53°54' E 009°09'0 0.3
2017-Sep-18 15:30N 53°54' E 009°09'1 2.4
2017-Sep-18 15:00N 53°55' E 009°10'0 0.6
2017-Sep-18 14:30N 53°55' E 009°11'3 5.5
2017-Sep-18 14:00N 53°57' E 009°14'3 6.9
2017-Sep-18 13:30N 53°60' E 009°17'3 6.6
2017-Sep-18 13:00N 54°03' E 009°18'38 4.1
2017-Sep-18 03:39N 54°24' E 010°12'19 7.6
2017-Sep-18 01:11N 54°35' E 010°38'1 7.0
2017-Sep-18 01:00N 54°36' E 010°40'4 7.1
2017-Sep-18 00:30N 54°38' E 010°45'4 7.1
2017-Sep-18 00:00N 54°40' E 010°49'3 6.7
2017-Sep-17 23:30N 54°43' E 010°52'4 7.7
2017-Sep-17 23:00N 54°47' E 010°52'4 8.5
2017-Sep-17 22:30N 54°52' E 010°52'5 9.6
2017-Sep-17 22:00N 54°56' E 010°55'611.3
2017-Sep-17 21:30N 55°01' E 011°01'612.2
2017-Sep-17 21:00N 55°07' E 011°02'611.9
2017-Sep-17 20:30N 55°12' E 011°06'34 9.6
2017-Sep-17 17:00N 55°36' E 010°24'77 3.7 120 / 81011.610.8 15.013.314.9
2017-Sep-16 20:28N 56°10' E 012°27'816.7
2017-Sep-16 20:00N 56°05' E 012°37'611.9
2017-Sep-16 19:30N 55°59' E 012°42'612.9
2017-Sep-16 19:00N 55°53' E 012°44'713.4
2017-Sep-16 18:30N 55°46' E 012°42'510.0
2017-Sep-16 18:00N 55°42' E 012°36'1 1.0
2017-Sep-16 17:29N 55°42' E 012°36'0 0.0
2017-Sep-16 16:59N 55°42' E 012°36'0 0.0
2017-Sep-16 16:29N 55°42' E 012°36'0 0.0
2017-Sep-16 15:59N 55°42' E 012°36'0 0.0
2017-Sep-16 15:29N 55°42' E 012°36'0 0.0
2017-Sep-16 14:59N 55°42' E 012°36'0 0.0
2017-Sep-16 14:29N 55°42' E 012°36'0 0.0
2017-Sep-16 13:59N 55°42' E 012°36'0 0.0
2017-Sep-16 13:29N 55°42' E 012°36'0 0.0
2017-Sep-16 12:59N 55°42' E 012°36'0 0.0
2017-Sep-16 12:29N 55°42' E 012°36'0 0.0
2017-Sep-16 11:59N 55°42' E 012°36'0 0.0
2017-Sep-16 11:29N 55°42' E 012°36'0 0.0
2017-Sep-16 10:59N 55°42' E 012°36'0 0.0
2017-Sep-16 10:29N 55°42' E 012°36'0 0.0
2017-Sep-16 09:59N 55°42' E 012°36'0 0.0
2017-Sep-16 09:29N 55°42' E 012°36'0 0.0
2017-Sep-16 08:59N 55°42' E 012°36'0 0.0
2017-Sep-16 08:29N 55°42' E 012°36'0 0.0
2017-Sep-16 07:56N 55°42' E 012°36'0 0.0
2017-Sep-16 07:26N 55°42' E 012°36'0 0.0
2017-Sep-16 06:56N 55°42' E 012°36'0 0.0
2017-Sep-16 06:29N 55°42' E 012°36'0 0.0
2017-Sep-16 05:59N 55°42' E 012°36'1 2.0
2017-Sep-16 05:30N 55°43' E 012°37'4 8.6
2017-Sep-16 05:00N 55°46' E 012°42'612.9
2017-Sep-16 04:30N 55°52' E 012°44'713.9
2017-Sep-16 04:01N 55°59' E 012°41'713.2
2017-Sep-16 03:30N 56°05' E 012°35'815.2
2017-Sep-16 03:00N 56°10' E 012°25'5717.5
2017-Sep-15 23:44N 57°01' E 011°40'618.1
2017-Sep-15 23:24N 57°07' E 011°36'717.8
2017-Sep-15 23:00N 57°14' E 011°32'917.7
2017-Sep-15 22:30N 57°22' E 011°26'917.5
2017-Sep-15 22:00N 57°30' E 011°20'917.1
2017-Sep-15 21:30N 57°38' E 011°15'917.6
2017-Sep-15 21:00N 57°46' E 011°08'917.7
2017-Sep-15 20:30N 57°54' E 011°01'917.5
2017-Sep-15 20:00N 58°02' E 010°55'918.0
2017-Sep-15 19:30N 58°11' E 010°49'918.2
2017-Sep-15 19:00N 58°19' E 010°40'917.9
2017-Sep-15 18:30N 58°27' E 010°33'917.1
2017-Sep-15 18:00N 58°35' E 010°31'817.2
2017-Sep-15 17:30N 58°44' E 010°33'917.6
2017-Sep-15 17:00N 58°53' E 010°34'8488.5
2017-Sep-15 17:00N 59°00' E 010°30'3 6.2 250 / 151000.110.8 15.513.915.2
2017-Sep-15 16:30N 59°01' E 010°35'713.3
2017-Sep-15 16:01N 59°08' E 010°37'918.1
2017-Sep-15 15:30N 59°17' E 010°36'1019.3
2017-Sep-15 15:00N 59°27' E 010°33'918.1
2017-Sep-15 14:30N 59°35' E 010°38'714.0
2017-Sep-15 14:00N 59°42' E 010°35'714.3
2017-Sep-15 13:30N 59°49' E 010°35'713.0
2017-Sep-15 13:00N 59°54' E 010°44'0 0.4
2017-Sep-15 12:30N 59°54' E 010°44'0 0.0
2017-Sep-15 12:00N 59°54' E 010°44'0 0.0
2017-Sep-15 11:30N 59°54' E 010°44'0 0.0
2017-Sep-15 11:00N 59°54' E 010°44'0 0.0
2017-Sep-15 10:30N 59°54' E 010°44'0 0.0
2017-Sep-15 10:00N 59°54' E 010°44'0 0.0
2017-Sep-15 09:30N 59°54' E 010°44'0 0.0
2017-Sep-15 09:00N 59°54' E 010°44'0 0.0
2017-Sep-15 08:30N 59°54' E 010°44'0 0.0
2017-Sep-15 08:00N 59°54' E 010°44'0 0.0
2017-Sep-15 07:30N 59°54' E 010°44'0 0.0
2017-Sep-15 07:00N 59°54' E 010°44'0 0.0
2017-Sep-15 06:30N 59°54' E 010°44'0 0.0
2017-Sep-15 06:00N 59°54' E 010°44'0 0.0
2017-Sep-15 05:30N 59°54' E 010°44'0 0.0
2017-Sep-15 05:00N 59°54' E 010°44'0 0.0
2017-Sep-15 04:30N 59°54' E 010°44'0 0.0
2017-Sep-15 04:00N 59°54' E 010°44'0 0.0
2017-Sep-15 03:30N 59°54' E 010°44'0 0.0
2017-Sep-15 03:00N 59°54' E 010°44'0 0.0
2017-Sep-15 02:30N 59°54' E 010°44'0 0.0
2017-Sep-15 02:00N 59°54' E 010°44'0 0.0
2017-Sep-15 01:30N 59°54' E 010°44'0 0.0
2017-Sep-15 01:00N 59°54' E 010°44'0 0.0
2017-Sep-15 00:30N 59°54' E 010°44'0 0.0
2017-Sep-15 00:00N 59°54' E 010°44'0 0.0
2017-Sep-14 23:30N 59°54' E 010°44'0 0.0
2017-Sep-14 23:00N 59°54' E 010°44'0 0.0
2017-Sep-14 22:30N 59°54' E 010°44'0 0.0
2017-Sep-14 22:00N 59°54' E 010°44'1 1.3
2017-Sep-14 21:30N 59°54' E 010°43'4 8.2
2017-Sep-14 21:00N 59°51' E 010°37'611.4
2017-Sep-14 20:30N 59°46' E 010°35'611.5
2017-Sep-14 20:00N 59°40' E 010°37'611.9
2017-Sep-14 19:30N 59°34' E 010°38'612.9
2017-Sep-14 19:00N 59°28' E 010°34'612.0
2017-Sep-14 18:30N 59°22' E 010°35'612.1
2017-Sep-14 18:00N 59°16' E 010°37'612.2
2017-Sep-14 17:30N 59°10' E 010°39'611.3
2017-Sep-14 17:00N 59°05' E 010°35'510.9
2017-Sep-14 16:30N 58°59' E 010°34'816.0
2017-Sep-14 16:00N 58°56' E 010°20'815.9
2017-Sep-14 15:30N 58°53' E 010°06'917.2
2017-Sep-14 15:00N 58°45' E 009°60'3213.8
2017-Sep-14 15:00N 58°42' E 010°00'3217.0 290 / 13990.110.8 16.014.415.7
2017-Sep-14 13:05N 58°16' E 009°23'118.4
2017-Sep-14 13:00N 58°15' E 009°21'918.2
2017-Sep-14 12:30N 58°08' E 009°10'918.1
2017-Sep-14 12:00N 58°02' E 008°58'918.3
2017-Sep-14 11:30N 57°56' E 008°44'1918.2
2017-Sep-14 10:28N 57°47' E 008°13'2117.5
2017-Sep-14 09:16N 57°42' E 007°35'517.8
2017-Sep-14 09:00N 57°42' E 007°26'8554.8
2017-Sep-14 09:00N 57°42' E 007°12'1 2.5 350 / 7988.910.8 14.012.315.0
2017-Sep-14 08:30N 57°42' E 007°10'917.5
2017-Sep-14 08:00N 57°43' E 006°54'917.7
2017-Sep-14 07:30N 57°43' E 006°37'917.4
2017-Sep-14 07:00N 57°48' E 006°24'917.9
2017-Sep-14 06:30N 57°54' E 006°11'917.9
2017-Sep-14 06:00N 57°59' E 005°57'1917.8
2017-Sep-14 04:57N 58°10' E 005°29'1217.3
2017-Sep-14 04:14N 58°18' E 005°10'717.5
2017-Sep-14 03:50N 58°22' E 004°59'617.6
2017-Sep-14 03:30N 58°25' E 004°51'1018.0
2017-Sep-14 02:57N 58°30' E 004°34'9018.2
2017-Sep-13 22:00N 59°06' E 001°54'9018.0 350 / 30990.710.8 12.011.114.0
2017-Sep-13 17:00N 59°54' W 000°36'112 5.6 360 / 28990.610.8 12.010.213.0
2017-Sep-12 21:00N 58°18' W 002°30'5914.7 040 / 4990.610.8 12.511.613.7
2017-Sep-12 17:00N 57°36' W 003°48'54 3.7 190 / 5991.910.8 13.011.313.7
2017-Sep-12 02:23N 57°47' W 002°09'614.9
2017-Sep-12 02:00N 57°47' W 001°58'713.9
2017-Sep-12 01:30N 57°43' W 001°47'714.2
2017-Sep-12 01:00N 57°38' W 001°38'815.8
2017-Sep-12 00:31N 57°31' W 001°33'917.0
2017-Sep-11 23:59N 57°22' W 001°34'817.3
2017-Sep-11 23:30N 57°13' W 001°32'917.8
2017-Sep-11 23:00N 57°05' W 001°36'1019.2
2017-Sep-11 22:30N 56°56' W 001°44'1427.8
2017-Sep-11 22:00N 56°42' W 001°48'714.8 280 / 35987.410.8 13.512.713.5
2017-Sep-11 21:31N 56°39' W 001°59'020.5
2017-Sep-11 21:30N 56°38' W 001°59'1019.6
2017-Sep-11 21:00N 56°30' W 002°07'1019.2
2017-Sep-11 20:30N 56°21' W 002°16'918.8
2017-Sep-11 20:00N 56°13' W 002°24'918.5
2017-Sep-11 19:30N 56°08' W 002°38'1019.5
2017-Sep-11 19:00N 56°05' W 002°54'815.7
2017-Sep-11 18:30N 56°03' W 003°08'714.2
2017-Sep-11 18:00N 56°01' W 003°21'3 6.0
2017-Sep-11 17:30N 56°01' W 003°26'0 0.0
2017-Sep-11 06:25N 56°01' W 003°26'3 7.4
2017-Sep-11 06:00N 56°01' W 003°20'612.5
2017-Sep-11 05:30N 56°03' W 003°10'611.9
2017-Sep-11 05:01N 56°04' W 002°59'3 5.4
2017-Sep-11 04:30N 56°05' W 002°55'4 8.4
2017-Sep-11 04:01N 56°07' W 002°48'4 8.3
2017-Sep-11 03:31N 56°07' W 002°40'4 8.7
2017-Sep-11 03:01N 56°07' W 002°33'4 8.9
2017-Sep-11 02:30N 56°07' W 002°25'4 8.6
2017-Sep-11 02:01N 56°07' W 002°17'4 8.9
2017-Sep-11 01:31N 56°07' W 002°09'4 8.9
2017-Sep-11 01:00N 56°07' W 002°01'4 8.3
2017-Sep-11 00:30N 56°06' W 001°54'4 8.8
2017-Sep-11 00:00N 56°03' W 001°48'5 9.5
2017-Sep-10 23:31N 55°60' W 001°42'5 9.4
2017-Sep-10 23:00N 55°57' W 001°36'5 9.5
2017-Sep-10 22:30N 55°53' W 001°29'5 9.5
2017-Sep-10 21:59N 55°50' W 001°23'510.3
2017-Sep-10 21:30N 55°47' W 001°16'5 9.9
2017-Sep-10 21:00N 55°42' W 001°13'5 9.8
2017-Sep-10 20:30N 55°37' W 001°12'5 9.3
2017-Sep-10 20:01N 55°33' W 001°11'5 9.8
2017-Sep-10 19:30N 55°28' W 001°10'5 9.5
2017-Sep-10 19:01N 55°23' W 001°08'5 9.2
2017-Sep-10 18:30N 55°18' W 001°07'4 8.9
2017-Sep-10 18:00N 55°14' W 001°07'4 8.5
2017-Sep-10 17:31N 55°10' W 001°08'5 9.5
2017-Sep-10 17:00N 55°06' W 001°14'162.0
2017-Sep-10 17:00N 55°06' W 001°12'510.9 200 / 26979.910.8 15.014.214.0
2017-Sep-10 16:30N 55°03' W 001°19'5 9.0
2017-Sep-10 16:01N 55°00' W 001°26'1 1.7
2017-Sep-10 15:28N 54°60' W 001°27'0 0.0
2017-Sep-10 14:58N 54°60' W 001°27'0 0.0
2017-Sep-10 13:58N 54°60' W 001°27'0 0.0
2017-Sep-10 13:28N 54°60' W 001°27'0 0.0
2017-Sep-10 12:58N 54°60' W 001°27'0 0.0
2017-Sep-10 12:25N 54°60' W 001°27'0 0.0
2017-Sep-10 11:55N 54°60' W 001°27'0 0.0
2017-Sep-10 11:28N 54°60' W 001°27'0 0.0
2017-Sep-10 10:58N 54°60' W 001°27'0 0.0
2017-Sep-10 10:28N 54°60' W 001°27'0 0.0
2017-Sep-10 09:58N 54°60' W 001°27'0 0.0
2017-Sep-10 09:28N 54°60' W 001°27'0 0.0
2017-Sep-10 08:58N 54°60' W 001°27'0 0.0
2017-Sep-10 08:28N 54°60' W 001°27'0 0.0
2017-Sep-10 07:58N 54°60' W 001°27'0 0.0
2017-Sep-10 07:28N 54°60' W 001°27'0 0.0
2017-Sep-10 06:58N 54°60' W 001°27'1 1.4
2017-Sep-10 06:30N 54°59' W 001°28'3 5.1
2017-Sep-10 06:00N 55°01' W 001°24'4 8.1
2017-Sep-10 05:30N 55°02' W 001°17'3 6.7
2017-Sep-10 05:00N 55°01' W 001°11'4 8.1
2017-Sep-10 04:30N 55°01' W 001°04'4 8.2
2017-Sep-10 04:00N 55°01' W 000°57'4 7.6
2017-Sep-10 03:29N 55°01' W 000°50'3 6.3
2017-Sep-10 03:00N 54°59' W 000°46'4 8.0
2017-Sep-10 02:30N 54°55' W 000°44'4 8.6
2017-Sep-10 02:00N 54°53' W 000°37'4 8.9
2017-Sep-10 01:30N 54°50' W 000°31'5 9.1
2017-Sep-10 01:00N 54°48' W 000°24'  

Dump ship's entire track history